createdAt,value
2023-05-01T00:07:18.712Z,50.43
2023-05-01T00:12:26.752Z,50.47
2023-05-01T00:17:37.869Z,50.69
2023-05-01T00:22:45.143Z,50.56
2023-05-01T00:27:47.421Z,50.57
2023-05-01T00:32:53.552Z,50.65
2023-05-01T00:37:55.317Z,50.54
2023-05-01T00:43:03.018Z,50.44
2023-05-01T00:48:12.826Z,50.50
2023-05-01T00:53:20.445Z,50.40
2023-05-01T00:58:40.252Z,50.58
2023-05-01T01:03:42.113Z,50.59
2023-05-01T01:09:00.009Z,50.43
2023-05-01T01:14:15.455Z,50.33
2023-05-01T01:19:42.356Z,50.34
2023-05-01T01:25:22.519Z,50.40
2023-05-01T01:30:39.828Z,50.42
2023-05-01T01:35:44.234Z,50.19
2023-05-01T01:41:10.470Z,50.32
2023-05-01T01:51:28.082Z,50.45
2023-05-01T02:02:17.394Z,50.50
2023-05-01T02:07:22.057Z,50.34
2023-05-01T02:23:31.930Z,50.37
2023-05-01T02:28:38.980Z,50.27
2023-05-01T02:33:42.156Z,50.33
2023-05-01T02:38:53.964Z,50.02
2023-05-01T02:44:01.392Z,50.13
2023-05-01T02:49:04.448Z,50.23
2023-05-01T02:54:15.888Z,50.29
2023-05-01T02:59:18.451Z,50.28
2023-05-01T03:04:21.166Z,50.25
2023-05-01T03:09:26.029Z,50.22
2023-05-01T03:14:30.968Z,50.43
2023-05-01T03:19:32.812Z,50.50
2023-05-01T03:24:34.703Z,50.46
2023-05-01T03:34:58.186Z,50.40
2023-05-01T03:40:00.415Z,50.40
2023-05-01T03:45:02.232Z,50.33
2023-05-01T03:50:07.206Z,50.34
2023-05-01T03:55:09.799Z,50.33
2023-05-01T04:00:20.124Z,50.43
2023-05-01T04:05:24.012Z,50.34
2023-05-01T04:10:29.337Z,50.31
2023-05-01T04:15:34.335Z,50.28
2023-05-01T04:20:51.250Z,50.31
2023-05-01T04:26:01.636Z,50.29
2023-05-01T04:31:07.419Z,50.17
2023-05-01T04:36:18.881Z,50.14
2023-05-01T04:41:29.900Z,50.27
2023-05-01T04:46:35.390Z,49.99
2023-05-01T04:51:38.879Z,50.15
2023-05-01T04:56:42.735Z,50.04
2023-05-01T05:01:47.822Z,50.30
2023-05-01T05:06:49.747Z,50.46
2023-05-01T05:17:15.798Z,50.07
2023-05-01T05:22:20.502Z,50.38
2023-05-01T05:27:25.777Z,50.31
2023-05-01T05:32:31.455Z,50.36
2023-05-01T05:37:39.240Z,50.36
2023-05-01T05:42:51.223Z,50.44
2023-05-01T05:47:57.783Z,50.42
2023-05-01T05:53:03.228Z,50.43
2023-05-01T05:58:12.954Z,50.34
2023-05-01T06:03:17.666Z,50.56
2023-05-01T06:08:23.083Z,50.39
2023-05-01T06:13:29.427Z,50.35
2023-05-01T06:18:33.082Z,50.58
2023-05-01T06:23:53.515Z,50.75
2023-05-01T06:35:09.965Z,50.63
2023-05-01T06:40:12.812Z,50.56
2023-05-01T06:45:19.849Z,50.72
2023-05-01T06:50:28.210Z,50.90
2023-05-01T06:55:33.785Z,50.62
2023-05-01T07:00:37.361Z,50.78
2023-05-01T07:05:40.869Z,50.59
2023-05-01T07:10:45.850Z,50.87
2023-05-01T07:15:49.199Z,51.01
2023-05-01T07:21:00.210Z,50.85
2023-05-01T07:26:02.941Z,50.97
2023-05-01T07:31:05.019Z,50.87
2023-05-01T07:36:09.899Z,50.82
2023-05-01T07:41:11.669Z,50.91
2023-05-01T07:46:26.532Z,50.80
2023-05-01T07:51:28.262Z,51.07
2023-05-01T07:56:34.483Z,50.95
2023-05-01T08:01:36.619Z,50.90
2023-05-01T08:06:44.825Z,50.88
2023-05-01T08:11:46.766Z,50.87
2023-05-01T08:16:59.281Z,50.90
2023-05-01T08:22:03.716Z,50.81
2023-05-01T08:27:05.779Z,50.75
2023-05-01T08:32:17.010Z,50.63
2023-05-01T08:38:13.863Z,50.60
2023-05-01T08:44:05.759Z,50.72
2023-05-01T08:49:43.078Z,50.55
2023-05-01T08:54:59.770Z,50.72
2023-05-01T09:00:05.189Z,50.73
2023-05-01T09:05:10.543Z,50.38
2023-05-01T09:10:26.968Z,50.33
2023-05-01T09:15:48.534Z,50.26
2023-05-01T09:20:50.279Z,50.39
2023-05-01T09:26:03.916Z,50.55
2023-05-01T09:31:29.419Z,50.36
2023-05-01T09:36:36.126Z,50.45
2023-05-01T09:41:42.071Z,50.42
2023-05-01T11:38:54.647Z,49.90
2023-05-01T11:44:06.990Z,49.87
2023-05-01T11:49:19.172Z,49.64
2023-05-01T11:54:25.527Z,49.83
2023-05-01T11:59:27.542Z,49.62
2023-05-01T12:04:35.495Z,49.54
2023-05-01T12:09:39.018Z,49.50
2023-05-01T12:14:40.882Z,49.90
2023-05-01T12:25:33.276Z,50.29
2023-05-01T12:41:55.848Z,50.97
2023-05-01T12:47:09.514Z,50.86
2023-05-01T12:52:12.610Z,50.76
2023-05-01T13:03:09.533Z,51.24
2023-05-01T13:08:22.199Z,51.11
2023-05-01T14:21:17.576Z,48.02
2023-05-01T14:26:27.287Z,48.32
2023-05-01T14:31:29.922Z,48.64
2023-05-01T14:36:32.784Z,48.91
2023-05-01T14:41:34.544Z,48.61
2023-05-01T14:46:36.729Z,48.76
2023-05-01T14:51:43.428Z,48.66
2023-05-01T15:02:03.713Z,48.94
2023-05-01T15:07:05.599Z,49.14
2023-05-01T15:12:35.520Z,49.22
2023-05-01T15:17:40.862Z,49.39
2023-05-01T15:28:09.529Z,49.82
2023-05-01T15:33:14.000Z,49.20
2023-05-01T15:38:26.216Z,49.00
2023-05-01T15:43:38.104Z,49.11
2023-05-01T15:48:48.501Z,49.45
2023-05-01T15:53:52.722Z,49.13
2023-05-01T15:58:57.715Z,49.27
2023-05-01T16:04:05.501Z,49.15
2023-05-01T16:09:10.278Z,49.26
2023-05-01T16:14:25.839Z,49.43
2023-05-01T16:19:30.862Z,49.24
2023-05-01T16:36:05.671Z,48.77
2023-05-01T16:41:13.125Z,49.15
2023-05-01T16:46:18.156Z,49.07
2023-05-01T16:51:21.327Z,49.25
2023-05-01T16:56:26.300Z,49.06
2023-05-01T17:01:30.616Z,48.46
2023-05-01T17:06:32.755Z,48.96
2023-05-01T17:11:36.841Z,49.03
2023-05-01T17:40:38.046Z,48.51
2023-05-01T17:45:42.646Z,48.59
2023-05-01T17:50:47.641Z,48.99
2023-05-01T17:55:55.674Z,48.85
2023-05-01T18:01:10.533Z,49.37
2023-05-01T18:06:25.513Z,49.69
2023-05-01T18:11:33.638Z,49.88
2023-05-01T18:16:39.529Z,50.01
2023-05-01T18:22:13.040Z,50.10
2023-05-01T18:27:24.869Z,50.51
2023-05-01T18:33:07.653Z,50.53
2023-05-01T18:38:03.293Z,50.90
2023-05-01T18:43:25.861Z,51.10
2023-05-01T18:48:46.685Z,50.98
2023-05-01T18:54:13.186Z,51.18
2023-05-01T18:59:18.489Z,51.32
2023-05-01T19:04:56.157Z,51.35
2023-05-01T19:10:06.789Z,51.48
2023-05-01T19:15:40.933Z,51.83
2023-05-01T19:20:54.266Z,51.68
2023-05-01T19:26:03.338Z,51.73
2023-05-01T19:31:13.795Z,51.93
2023-05-01T19:36:18.999Z,51.88
2023-05-01T19:41:21.362Z,51.88
2023-05-01T19:46:33.225Z,51.87
2023-05-01T19:51:44.272Z,51.73
2023-05-01T19:56:47.090Z,51.80
2023-05-01T20:01:52.471Z,51.88
2023-05-01T20:06:56.320Z,51.74
2023-05-01T20:12:24.300Z,51.91
2023-05-01T20:17:43.374Z,51.92
2023-05-01T20:23:38.187Z,52.15
2023-05-01T20:29:16.233Z,51.95
2023-05-01T20:34:48.351Z,52.03
2023-05-01T20:40:09.838Z,52.20
2023-05-01T20:45:16.251Z,52.41
2023-05-01T20:50:32.765Z,51.93
2023-05-01T20:55:48.507Z,52.24
2023-05-01T21:01:21.469Z,52.11
2023-05-01T21:06:24.288Z,52.08
2023-05-01T21:11:29.677Z,52.12
2023-05-01T21:17:04.684Z,52.40
2023-05-01T21:22:27.325Z,52.40
2023-05-01T21:27:43.340Z,52.39
2023-05-01T21:38:21.594Z,52.43
2023-05-01T21:43:26.281Z,52.43
2023-05-01T21:49:02.280Z,52.35
2023-05-01T21:54:06.761Z,52.50
2023-05-01T21:59:10.487Z,52.39
2023-05-01T22:04:39.195Z,52.70
2023-05-01T22:09:54.075Z,52.37
2023-05-01T22:15:02.966Z,52.58
2023-05-01T22:20:15.262Z,52.62
2023-05-01T22:25:21.638Z,52.62
2023-05-01T22:30:31.479Z,52.67
2023-05-01T22:35:39.440Z,52.43
2023-05-01T22:46:34.234Z,52.50
2023-05-01T22:51:51.514Z,52.38
2023-05-01T23:03:25.517Z,52.56
2023-05-01T23:09:20.886Z,52.50
2023-05-01T23:20:37.770Z,52.31
2023-05-01T23:26:28.403Z,52.36
2023-05-01T23:31:47.384Z,52.30
2023-05-01T23:42:43.936Z,52.11
2023-05-01T23:48:04.447Z,51.92
2023-05-01T23:53:15.252Z,52.04
2023-05-01T23:58:38.810Z,52.25
